Time;durP1;ratioP1;P1;durP2;ratioP2;P2;SDS_P1;SDS_P2;PMS_P1;PMS_P2;Temp;Humidity;BMP_temperature;BMP_pressure;BME280_temperature;BME280_humidity;BME280_pressure;Samples;Min_cycle;Max_cycle;Signal;HPM_P1;HPM_P2
2024/03/08 00:00:42;;;;;;;37.50;17.10;;;4.10;81.40;;;;;;5007922;28;20455;-68
2024/03/08 00:03:10;;;;;;;40.07;17.80;;;4.20;81.40;;;;;;5010818;28;20443;-71
2024/03/08 00:05:36;;;;;;;39.40;17.47;;;4.10;81.40;;;;;;5010642;28;20494;-72
2024/03/08 00:08:02;;;;;;;38.70;17.30;;;4.10;81.50;;;;;;5009800;28;20802;-71
2024/03/08 00:10:28;;;;;;;42.93;19.33;;;4.10;81.50;;;;;;5009368;28;20411;-70
2024/03/08 00:12:54;;;;;;;41.43;17.83;;;4.10;81.70;;;;;;5009624;28;20500;-72
2024/03/08 00:15:22;;;;;;;40.90;18.33;;;4.00;81.80;;;;;;5009004;28;21008;-71
2024/03/08 00:17:48;;;;;;;40.70;18.67;;;4.00;81.70;;;;;;5009330;28;20240;-70
2024/03/08 00:20:14;;;;;;;44.87;18.90;;;4.00;81.70;;;;;;5009807;28;20452;-71
2024/03/08 00:22:39;;;;;;;34.13;16.97;;;4.00;81.80;;;;;;5007449;28;20213;-70
2024/03/08 00:25:08;;;;;;;39.30;18.30;;;4.00;81.70;;;;;;5009923;28;20181;-70
2024/03/08 00:27:34;;;;;;;35.07;17.53;;;4.00;81.80;;;;;;5009724;28;20977;-72
2024/03/08 00:30:00;;;;;;;39.63;18.93;;;4.00;81.80;;;;;;5010409;28;20509;-70
2024/03/08 00:32:27;;;;;;;36.70;17.77;;;4.00;81.80;;;;;;5005788;28;20197;-71
2024/03/08 00:34:56;;;;;;;41.43;19.67;;;3.90;81.70;;;;;;5009729;28;20432;-72
2024/03/08 00:37:22;;;;;;;35.00;17.53;;;3.80;81.80;;;;;;5009942;28;20496;-72
2024/03/08 00:39:51;;;;;;;41.90;19.30;;;3.70;81.90;;;;;;5011380;28;20983;-71
2024/03/08 00:42:17;;;;;;;42.33;17.63;;;3.60;82.20;;;;;;5006587;28;20252;-69
2024/03/08 00:44:43;;;;;;;41.87;19.40;;;3.50;82.50;;;;;;5009660;28;20905;-71
2024/03/08 00:47:09;;;;;;;39.83;18.00;;;3.50;82.70;;;;;;5009630;28;20544;-71
2024/03/08 00:49:36;;;;;;;44.47;20.30;;;3.40;82.70;;;;;;5013843;28;20277;-72
2024/03/08 00:52:02;;;;;;;38.73;18.90;;;3.40;82.80;;;;;;5012586;28;20825;-70
2024/03/08 00:54:28;;;;;;;40.03;18.40;;;3.30;83.30;;;;;;5010508;28;20499;-71
2024/03/08 00:56:53;;;;;;;45.30;19.30;;;3.40;83.40;;;;;;5009441;28;20472;-71
2024/03/08 00:59:19;;;;;;;43.90;18.80;;;3.30;83.30;;;;;;5010088;28;20548;-70
2024/03/08 01:01:45;;;;;;;41.77;18.40;;;3.30;83.30;;;;;;5007858;28;20755;-69
2024/03/08 01:04:11;;;;;;;44.60;18.83;;;3.20;83.30;;;;;;5011212;28;20189;-69
2024/03/08 01:06:37;;;;;;;39.77;19.20;;;3.20;83.40;;;;;;5010664;28;20456;-70
2024/03/08 01:09:02;;;;;;;41.43;18.50;;;3.20;83.40;;;;;;5010227;28;20475;-69
2024/03/08 01:11:28;;;;;;;41.00;18.53;;;3.20;83.70;;;;;;5007800;28;20308;-71
2024/03/08 01:13:54;;;;;;;46.80;19.93;;;3.20;83.60;;;;;;5009788;28;20620;-70
2024/03/08 01:16:22;;;;;;;44.30;20.73;;;3.20;83.70;;;;;;5010686;28;20264;-72
2024/03/08 01:18:48;;;;;;;43.53;18.67;;;3.10;83.40;;;;;;5011418;28;20213;-71
2024/03/08 01:21:13;;;;;;;39.07;18.33;;;3.10;83.60;;;;;;5008723;28;21034;-70
2024/03/08 01:23:39;;;;;;;37.40;17.63;;;3.00;83.70;;;;;;5014159;28;21015;-70
2024/03/08 01:26:06;;;;;;;44.33;19.77;;;3.10;84.10;;;;;;5013692;28;20268;-70
2024/03/08 01:28:33;;;;;;;43.30;19.63;;;3.10;84.10;;;;;;5013877;28;20184;-69
2024/03/08 01:30:59;;;;;;;46.20;19.03;;;3.00;83.80;;;;;;5009442;28;20551;-71
2024/03/08 01:33:26;;;;;;;41.77;19.13;;;3.00;83.80;;;;;;5013036;28;20486;-70
2024/03/08 01:35:52;;;;;;;44.40;19.20;;;3.00;84.10;;;;;;5013189;28;20984;-70
2024/03/08 01:38:21;;;;;;;45.13;20.37;;;3.00;84.10;;;;;;5012768;28;20949;-71
2024/03/08 01:40:46;;;;;;;43.30;20.10;;;2.90;84.10;;;;;;5013261;28;20472;-71
2024/03/08 01:43:18;;;;;;;40.03;17.60;;;2.90;84.10;;;;;;5012870;28;20451;-69
2024/03/08 01:45:43;;;;;;;45.73;21.63;;;2.80;84.30;;;;;;5013370;28;20222;-70
2024/03/08 01:48:10;;;;;;;38.00;18.50;;;2.80;84.30;;;;;;5012960;28;20487;-70
2024/03/08 01:50:36;;;;;;;35.77;17.10;;;2.70;84.30;;;;;;5010035;28;20244;-70
2024/03/08 01:53:03;;;;;;;41.97;18.60;;;2.60;84.30;;;;;;5013398;28;20429;-69
2024/03/08 01:55:28;;;;;;;42.03;19.10;;;2.60;84.40;;;;;;5013059;28;20946;-71
2024/03/08 01:57:55;;;;;;;42.37;19.37;;;2.70;84.70;;;;;;5012683;28;20472;-71
2024/03/08 02:00:21;;;;;;;45.67;20.20;;;2.70;84.70;;;;;;5012758;28;20182;-67
2024/03/08 02:02:49;;;;;;;46.67;21.90;;;2.60;84.60;;;;;;4992975;28;20349;-71
2024/03/08 02:05:15;;;;;;;50.83;21.07;;;2.50;84.60;;;;;;5011843;28;20429;-70
2024/03/08 02:07:43;;;;;;;47.93;19.20;;;2.50;84.90;;;;;;4997755;28;21105;-68
2024/03/08 02:10:10;;;;;;;52.37;20.60;;;2.40;85.00;;;;;;5016018;28;20460;-70
2024/03/08 02:12:36;;;;;;;42.70;18.00;;;2.40;85.30;;;;;;5010497;28;20461;-70
2024/03/08 02:15:01;;;;;;;40.10;18.40;;;2.50;85.50;;;;;;5012256;28;20432;-70
2024/03/08 02:17:27;;;;;;;45.17;19.77;;;2.50;85.50;;;;;;5011956;28;20468;-70
2024/03/08 02:19:53;;;;;;;44.13;19.70;;;2.50;85.50;;;;;;5012315;28;20189;-70
2024/03/08 02:22:19;;;;;;;45.13;19.37;;;2.40;85.30;;;;;;5009841;28;20448;-69
2024/03/08 02:24:45;;;;;;;42.92;19.48;;;2.40;85.30;;;;;;5012102;28;20565;-69
2024/03/08 02:27:11;;;;;;;39.10;18.37;;;2.30;85.30;;;;;;5011905;28;20219;-69
2024/03/08 02:29:40;;;;;;;39.60;17.60;;;2.30;85.30;;;;;;5012269;28;20571;-70
2024/03/08 02:32:06;;;;;;;38.43;16.90;;;2.30;85.50;;;;;;5009104;28;20977;-70
2024/03/08 02:34:32;;;;;;;42.90;19.83;;;2.40;85.50;;;;;;4988832;28;20448;-72
2024/03/08 02:36:57;;;;;;;39.13;17.30;;;2.40;85.20;;;;;;5015448;28;20213;-68
2024/03/08 02:39:23;;;;;;;44.90;19.13;;;2.30;85.00;;;;;;5005650;28;20550;-72
2024/03/08 02:41:48;;;;;;;46.87;21.03;;;2.20;85.00;;;;;;5011351;28;20205;-70
2024/03/08 02:44:14;;;;;;;38.60;17.60;;;2.20;85.20;;;;;;5011121;28;20190;-72
2024/03/08 02:46:40;;;;;;;43.03;19.20;;;2.30;85.30;;;;;;5011747;28;20244;-71
2024/03/08 02:49:07;;;;;;;43.57;18.60;;;2.30;85.30;;;;;;5014126;28;20933;-71
2024/03/08 02:51:35;;;;;;;40.43;17.17;;;2.40;85.50;;;;;;5009301;28;20202;-71
2024/03/08 02:54:00;;;;;;;34.43;16.67;;;2.40;85.50;;;;;;5012485;28;20421;-70
2024/03/08 02:56:26;;;;;;;31.70;16.00;;;2.50;85.30;;;;;;5011522;28;20468;-72
2024/03/08 02:58:52;;;;;;;37.33;16.73;;;2.50;85.20;;;;;;5011534;28;20182;-68
2024/03/08 03:01:20;;;;;;;32.57;16.77;;;2.60;85.00;;;;;;5009484;28;20205;-70
2024/03/08 03:03:47;;;;;;;46.30;16.60;;;2.60;84.60;;;;;;4993763;28;20749;-70
2024/03/08 03:06:14;;;;;;;41.88;16.80;;;2.60;84.40;;;;;;5012019;28;20785;-70
2024/03/08 03:08:42;;;;;;;38.85;17.70;;;2.60;84.60;;;;;;5012649;28;20182;-72
2024/03/08 03:11:08;;;;;;;36.97;16.80;;;2.70;84.40;;;;;;5017452;28;20205;-70
2024/03/08 03:13:33;;;;;;;39.03;16.70;;;2.70;84.30;;;;;;5011569;28;20260;-72
2024/03/08 03:15:59;;;;;;;37.20;16.40;;;2.70;84.30;;;;;;5018000;28;20182;-73
2024/03/08 03:18:26;;;;;;;36.93;17.03;;;2.70;84.00;;;;;;5015993;28;20280;-72
2024/03/08 03:20:51;;;;;;;38.40;16.57;;;2.70;83.80;;;;;;5009360;28;20213;-72
2024/03/08 03:23:20;;;;;;;33.07;15.40;;;2.80;83.60;;;;;;5011424;28;20436;-72
2024/03/08 03:25:46;;;;;;;36.90;17.03;;;2.90;83.10;;;;;;5011230;28;20194;-72
2024/03/08 03:28:14;;;;;;;38.63;16.93;;;2.90;82.70;;;;;;5010867;28;20490;-71
2024/03/08 03:30:40;;;;;;;41.77;16.80;;;2.90;82.40;;;;;;5008056;28;20495;-72
2024/03/08 03:33:09;;;;;;;36.40;16.97;;;3.00;82.10;;;;;;5008732;28;20921;-72
2024/03/08 03:35:35;;;;;;;37.23;17.50;;;3.00;81.70;;;;;;5011145;28;20197;-73
2024/03/08 03:38:06;;;;;;;36.23;15.80;;;3.00;81.70;;;;;;4992718;28;20992;-70
2024/03/08 03:40:35;;;;;;;30.40;15.37;;;3.00;81.70;;;;;;5009136;28;20552;-70
2024/03/08 03:43:02;;;;;;;37.20;15.57;;;3.10;81.50;;;;;;5007654;28;20425;-71
2024/03/08 03:45:28;;;;;;;37.60;16.20;;;3.10;81.40;;;;;;5010606;28;20421;-71
2024/03/08 03:47:54;;;;;;;30.90;14.80;;;3.10;81.20;;;;;;5014222;28;20581;-71
2024/03/08 03:50:20;;;;;;;35.10;16.40;;;3.10;80.90;;;;;;5012323;28;20528;-71
2024/03/08 03:52:47;;;;;;;38.70;17.77;;;3.10;80.60;;;;;;5010202;28;20272;-71
2024/03/08 03:55:13;;;;;;;39.47;16.67;;;3.10;80.60;;;;;;5011723;28;20436;-70
2024/03/08 03:57:39;;;;;;;37.17;17.33;;;3.10;80.50;;;;;;5010585;28;20476;-71
2024/03/08 04:00:06;;;;;;;31.13;14.30;;;3.00;80.50;;;;;;5011381;28;20531;-69
2024/03/08 04:02:31;;;;;;;34.70;15.80;;;3.10;80.60;;;;;;5010391;28;20464;-71
2024/03/08 04:04:58;;;;;;;40.00;16.77;;;3.10;80.50;;;;;;5017066;28;20436;-71
2024/03/08 04:07:24;;;;;;;34.70;17.53;;;3.10;80.30;;;;;;5012272;28;20694;-71
2024/03/08 04:09:50;;;;;;;33.43;16.27;;;3.20;80.20;;;;;;5013041;28;20424;-71
2024/03/08 04:12:15;;;;;;;37.20;16.53;;;3.10;80.00;;;;;;5008777;28;20205;-71
2024/03/08 04:14:42;;;;;;;35.40;16.90;;;3.10;80.00;;;;;;5012006;28;20273;-70
2024/03/08 04:17:08;;;;;;;32.47;15.70;;;3.20;80.00;;;;;;5012000;28;20304;-71
2024/03/08 04:19:35;;;;;;;34.67;16.13;;;3.10;79.90;;;;;;5012149;28;20852;-70
2024/03/08 04:22:02;;;;;;;41.87;17.53;;;3.20;79.90;;;;;;5009358;28;20572;-71
2024/03/08 04:24:27;;;;;;;34.47;16.40;;;3.20;79.90;;;;;;5010232;28;20478;-71
2024/03/08 04:26:53;;;;;;;37.97;16.33;;;3.10;79.70;;;;;;5009951;28;20428;-71
2024/03/08 04:29:18;;;;;;;38.87;17.97;;;3.10;79.90;;;;;;5010507;28;20233;-71
2024/03/08 04:31:44;;;;;;;41.63;18.27;;;3.10;79.90;;;;;;5007713;28;20679;-71
2024/03/08 04:34:10;;;;;;;34.07;16.97;;;3.00;79.90;;;;;;5009877;28;20960;-70
2024/03/08 04:36:36;;;;;;;37.87;17.77;;;3.00;80.00;;;;;;5010264;28;20220;-71
2024/03/08 04:39:02;;;;;;;35.60;16.50;;;3.00;80.00;;;;;;5012869;28;20481;-70
2024/03/08 04:41:30;;;;;;;34.17;16.17;;;3.00;80.30;;;;;;5009417;28;20240;-71
2024/03/08 04:43:57;;;;;;;36.97;17.23;;;3.00;80.30;;;;;;5009607;28;20431;-70
2024/03/08 04:46:23;;;;;;;36.30;17.80;;;3.00;80.50;;;;;;5003867;28;20421;-69
2024/03/08 04:48:49;;;;;;;34.90;16.50;;;3.00;80.30;;;;;;5011721;28;20437;-71
2024/03/08 04:51:15;;;;;;;38.57;17.23;;;3.00;80.30;;;;;;5007082;28;20480;-72
2024/03/08 04:53:41;;;;;;;41.80;18.80;;;3.00;80.30;;;;;;5010002;28;20194;-70
2024/03/08 04:56:07;;;;;;;39.70;17.20;;;3.00;80.30;;;;;;5009382;28;20431;-69
2024/03/08 04:58:35;;;;;;;33.70;17.53;;;3.00;80.30;;;;;;5009646;28;20429;-72
2024/03/08 05:01:01;;;;;;;36.00;17.07;;;3.00;80.50;;;;;;5007857;28;20471;-71
2024/03/08 05:03:27;;;;;;;33.00;16.50;;;3.00;80.60;;;;;;5009739;28;20427;-72
2024/03/08 05:05:53;;;;;;;39.20;17.73;;;3.00;80.50;;;;;;5012453;28;20429;-70
2024/03/08 05:08:19;;;;;;;42.43;16.73;;;3.00;80.50;;;;;;5017732;28;20213;-71
2024/03/08 05:10:45;;;;;;;38.80;18.13;;;3.00;80.50;;;;;;5008672;28;20688;-71
2024/03/08 05:13:10;;;;;;;42.73;17.47;;;2.90;80.50;;;;;;5008977;28;20604;-69
2024/03/08 05:15:36;;;;;;;37.53;17.73;;;2.80;80.50;;;;;;5011521;28;20265;-70
2024/03/08 05:18:02;;;;;;;37.20;17.43;;;2.80;80.80;;;;;;5010579;28;20280;-69
2024/03/08 05:20:27;;;;;;;37.73;17.00;;;2.80;80.80;;;;;;5008870;28;20702;-69
2024/03/08 05:22:53;;;;;;;36.77;17.30;;;2.80;80.80;;;;;;5008601;28;20328;-73
2024/03/08 05:25:18;;;;;;;41.27;17.20;;;2.80;80.80;;;;;;5010449;28;20174;-71
2024/03/08 05:27:44;;;;;;;32.60;15.70;;;2.80;80.80;;;;;;5012149;28;20194;-71
2024/03/08 05:30:14;;;;;;;39.33;17.27;;;2.80;80.80;;;;;;5010350;28;20181;-70
2024/03/08 05:32:44;;;;;;;41.63;16.97;;;2.80;80.90;;;;;;4991947;28;20221;-71
2024/03/08 05:35:11;;;;;;;38.13;18.00;;;2.80;80.90;;;;;;5010152;28;21024;-72
2024/03/08 05:37:38;;;;;;;36.97;17.67;;;2.80;80.90;;;;;;5009826;28;20467;-71
2024/03/08 05:40:08;;;;;;;41.17;17.90;;;2.80;80.90;;;;;;5011546;28;20428;-73
2024/03/08 05:42:35;;;;;;;42.83;18.13;;;2.70;80.80;;;;;;5014423;28;20460;-71
2024/03/08 05:45:00;;;;;;;33.07;16.33;;;2.70;80.90;;;;;;5010686;28;20431;-71
2024/03/08 05:47:26;;;;;;;38.10;18.00;;;2.80;81.10;;;;;;5009458;28;20421;-71
2024/03/08 05:49:53;;;;;;;43.17;18.23;;;2.80;81.20;;;;;;5009497;28;20236;-72
2024/03/08 05:52:19;;;;;;;38.63;18.47;;;2.80;81.20;;;;;;5006906;28;20210;-72
2024/03/08 05:54:45;;;;;;;33.90;17.00;;;2.80;81.20;;;;;;5009102;28;20428;-70
2024/03/08 05:57:11;;;;;;;43.23;18.83;;;2.80;81.20;;;;;;5009346;28;20490;-72
2024/03/08 05:59:37;;;;;;;34.07;17.20;;;2.80;81.40;;;;;;5009798;28;20512;-72
2024/03/08 06:02:03;;;;;;;42.83;19.43;;;2.80;81.40;;;;;;5007402;28;20209;-71
2024/03/08 06:04:29;;;;;;;41.80;18.30;;;2.80;81.40;;;;;;4991203;28;20186;-72
2024/03/08 06:06:56;;;;;;;42.00;18.00;;;2.80;81.40;;;;;;5013681;28;20428;-72
2024/03/08 06:09:23;;;;;;;48.75;21.15;;;2.70;81.20;;;;;;5014970;28;20265;-71
2024/03/08 06:11:49;;;;;;;39.73;19.47;;;2.70;81.40;;;;;;5012400;28;20595;-71
2024/03/08 06:14:18;;;;;;;39.97;17.60;;;2.70;81.50;;;;;;5012300;28;20482;-71
2024/03/08 06:16:46;;;;;;;40.70;18.70;;;2.70;81.70;;;;;;5013447;28;20483;-71
2024/03/08 06:19:13;;;;;;;39.50;18.53;;;2.70;81.50;;;;;;5013282;28;20437;-71
2024/03/08 06:21:39;;;;;;;42.73;18.93;;;2.70;81.70;;;;;;5010608;28;20472;-72
2024/03/08 06:24:05;;;;;;;42.77;19.50;;;2.70;81.80;;;;;;5012927;28;20420;-73
2024/03/08 06:26:30;;;;;;;42.53;19.20;;;2.70;81.80;;;;;;5013755;28;20512;-72
2024/03/08 06:28:57;;;;;;;41.13;18.70;;;2.80;81.80;;;;;;5014632;28;20552;-71
2024/03/08 06:31:23;;;;;;;43.17;19.10;;;2.80;81.80;;;;;;5010684;28;20224;-73
2024/03/08 06:33:54;;;;;;;44.13;18.17;;;2.80;81.80;;;;;;5013662;28;20421;-72
2024/03/08 06:36:21;;;;;;;47.90;20.37;;;2.70;81.70;;;;;;5013139;28;20181;-70
2024/03/08 06:38:50;;;;;;;37.53;18.53;;;2.80;81.90;;;;;;5012934;28;20482;-71
2024/03/08 06:41:16;;;;;;;34.50;17.53;;;2.80;82.10;;;;;;5013620;28;20540;-71
2024/03/08 06:43:46;;;;;;;36.90;17.33;;;2.90;81.90;;;;;;5012269;28;21008;-71
2024/03/08 06:46:12;;;;;;;38.20;18.13;;;2.90;81.90;;;;;;4999482;28;20188;-70
2024/03/08 06:48:41;;;;;;;49.73;22.10;;;3.00;81.80;;;;;;5012176;28;20433;-70
2024/03/08 06:51:07;;;;;;;43.78;19.83;;;3.00;81.70;;;;;;5009205;28;20526;-70
2024/03/08 06:53:34;;;;;;;42.20;19.37;;;3.10;81.80;;;;;;5011873;28;20185;-72
2024/03/08 06:56:01;;;;;;;43.30;19.30;;;3.20;81.70;;;;;;5011978;28;20190;-72
2024/03/08 06:58:27;;;;;;;43.80;19.43;;;3.20;81.40;;;;;;5012251;28;20499;-72
2024/03/08 07:00:53;;;;;;;40.43;19.03;;;3.30;81.20;;;;;;5009347;28;20547;-70
2024/03/08 07:03:19;;;;;;;43.80;19.33;;;3.50;80.60;;;;;;5007579;28;20189;-71
2024/03/08 07:05:45;;;;;;;47.00;19.30;;;3.50;79.90;;;;;;5011833;28;20425;-70
2024/03/08 07:08:14;;;;;;;38.33;19.23;;;3.50;79.90;;;;;;5011813;28;20202;-69
2024/03/08 07:10:41;;;;;;;41.97;18.50;;;3.60;79.70;;;;;;5004503;28;20452;-72
2024/03/08 07:13:07;;;;;;;42.07;19.90;;;3.80;79.60;;;;;;5012337;28;20435;-72
2024/03/08 07:15:33;;;;;;;40.73;18.70;;;3.90;79.50;;;;;;5012390;28;20521;-70
2024/03/08 07:17:59;;;;;;;37.60;18.47;;;3.90;79.00;;;;;;5010664;28;20563;-71
2024/03/08 07:20:25;;;;;;;37.30;17.73;;;4.00;78.70;;;;;;5011835;28;20212;-71
2024/03/08 07:22:51;;;;;;;38.00;18.10;;;4.10;78.40;;;;;;5011753;28;21346;-70
2024/03/08 07:25:24;;;;;;;44.87;19.13;;;4.10;78.00;;;;;;5012950;28;20562;-71
2024/03/08 07:27:53;;;;;;;44.23;19.93;;;4.10;77.70;;;;;;5012066;28;20189;-71
2024/03/08 07:33:11;;;;;;;43.43;20.53;;;4.20;77.60;;;;;;5010612;28;20437;-71
2024/03/08 07:35:37;;;;;;;40.57;19.13;;;4.30;77.40;;;;;;5012729;28;20433;-71
2024/03/08 07:38:07;;;;;;;39.27;18.60;;;4.30;77.30;;;;;;5012418;28;21011;-72
2024/03/08 07:40:38;;;;;;;39.67;18.67;;;4.30;77.10;;;;;;5012283;28;20457;-71
2024/03/08 07:43:04;;;;;;;41.20;19.30;;;4.30;77.30;;;;;;5009405;28;20416;-71
2024/03/08 07:45:30;;;;;;;41.13;17.83;;;4.40;77.00;;;;;;5013347;28;20436;-69
2024/03/08 07:47:56;;;;;;;43.70;20.17;;;4.50;76.70;;;;;;5015817;28;20438;-71
2024/03/08 07:50:22;;;;;;;42.03;18.27;;;4.60;76.70;;;;;;5012962;28;20197;-71
2024/03/08 07:52:48;;;;;;;37.13;18.00;;;4.70;76.40;;;;;;5012015;28;20812;-70
2024/03/08 07:55:14;;;;;;;37.17;18.00;;;4.70;76.10;;;;;;5016242;28;20413;-72
2024/03/08 07:57:42;;;;;;;41.30;19.00;;;4.70;75.40;;;;;;5015189;28;20225;-70
2024/03/08 08:00:09;;;;;;;35.27;16.20;;;4.80;75.20;;;;;;5018455;28;20469;-72
2024/03/08 08:02:35;;;;;;;36.80;16.60;;;4.80;75.10;;;;;;5009458;28;20461;-70
2024/03/08 08:05:01;;;;;;;37.40;16.93;;;4.90;74.90;;;;;;5016177;28;21081;-70
2024/03/08 08:07:27;;;;;;;38.80;17.47;;;4.90;74.50;;;;;;5018826;28;20444;-73
2024/03/08 08:09:53;;;;;;;33.83;16.40;;;5.00;74.50;;;;;;5013496;28;20441;-72
2024/03/08 08:12:19;;;;;;;39.37;17.90;;;5.00;74.00;;;;;;5011807;28;20491;-71
2024/03/08 08:14:44;;;;;;;37.33;17.03;;;5.00;74.00;;;;;;5014575;28;20949;-70
2024/03/08 08:17:10;;;;;;;31.10;15.30;;;5.00;73.70;;;;;;5011273;28;21053;-71
2024/03/08 08:19:36;;;;;;;33.27;16.20;;;5.00;74.00;;;;;;5012920;28;20264;-70
2024/03/08 08:22:03;;;;;;;35.80;16.13;;;5.10;73.90;;;;;;5009901;28;20523;-73
2024/03/08 08:24:28;;;;;;;31.50;16.70;;;5.10;73.60;;;;;;5012450;28;20626;-71
2024/03/08 08:26:54;;;;;;;35.27;16.03;;;4.90;73.50;;;;;;5012797;28;20417;-72
2024/03/08 08:29:20;;;;;;;36.70;16.73;;;4.80;73.90;;;;;;5012734;28;20197;-72
2024/03/08 08:31:46;;;;;;;37.03;16.63;;;4.80;74.20;;;;;;5011390;28;20213;-72
2024/03/08 08:34:13;;;;;;;35.27;17.20;;;4.90;74.30;;;;;;5012475;28;20519;-70
2024/03/08 08:36:39;;;;;;;31.80;17.13;;;4.90;74.30;;;;;;5013730;28;20835;-70
2024/03/08 08:39:12;;;;;;;44.00;19.50;;;5.00;74.50;;;;;;5013167;28;20417;-72
2024/03/08 08:41:38;;;;;;;37.87;17.03;;;5.00;74.00;;;;;;4992218;28;20722;-71
2024/03/08 08:44:03;;;;;;;35.40;17.10;;;4.90;73.90;;;;;;5018088;28;20404;-72
2024/03/08 08:46:29;;;;;;;34.10;17.00;;;4.90;74.00;;;;;;5012120;28;20240;-72
2024/03/08 08:48:55;;;;;;;33.00;16.67;;;4.90;74.00;;;;;;5017078;28;20447;-72
2024/03/08 08:51:21;;;;;;;31.10;16.67;;;5.00;74.20;;;;;;5008398;28;20221;-72
2024/03/08 08:53:47;;;;;;;31.73;16.40;;;5.10;73.90;;;;;;5011289;28;20456;-72
2024/03/08 08:56:13;;;;;;;37.10;18.20;;;5.20;73.70;;;;;;5010738;28;20255;-70
2024/03/08 08:58:41;;;;;;;33.37;15.73;;;5.30;73.50;;;;;;5011976;28;20500;-71
2024/03/08 09:01:07;;;;;;;35.43;15.47;;;5.30;73.00;;;;;;5009613;28;20269;-72
2024/03/08 09:03:34;;;;;;;39.97;19.73;;;5.30;72.90;;;;;;5010866;28;20413;-71
2024/03/08 09:06:00;;;;;;;32.43;16.07;;;5.30;72.90;;;;;;5010937;28;20421;-72
2024/03/08 09:08:26;;;;;;;37.77;17.50;;;5.10;72.90;;;;;;5011236;28;20427;-71
2024/03/08 09:10:51;;;;;;;33.90;16.13;;;5.20;73.30;;;;;;4995698;28;20234;-70
2024/03/08 09:13:18;;;;;;;33.97;16.80;;;5.30;73.30;;;;;;5012461;28;20185;-71
2024/03/08 09:15:44;;;;;;;34.60;18.00;;;5.40;73.30;;;;;;5010663;28;20186;-71
2024/03/08 09:18:10;;;;;;;37.37;17.60;;;5.30;73.20;;;;;;5011144;28;20811;-72
2024/03/08 09:20:36;;;;;;;34.90;16.03;;;5.20;73.30;;;;;;5008980;28;20467;-72
2024/03/08 09:23:03;;;;;;;34.80;17.07;;;5.30;73.90;;;;;;5010600;28;20425;-72
2024/03/08 09:25:29;;;;;;;38.37;17.13;;;5.40;73.60;;;;;;5011409;28;20455;-73
2024/03/08 09:27:55;;;;;;;39.50;15.80;;;5.40;73.50;;;;;;5010740;28;20444;-72
2024/03/08 09:30:23;;;;;;;37.40;16.10;;;5.50;73.30;;;;;;5011534;28;20217;-70
2024/03/08 09:32:51;;;;;;;33.73;16.27;;;5.40;72.90;;;;;;5007892;28;20269;-71
2024/03/08 09:35:16;;;;;;;37.73;16.47;;;5.50;73.00;;;;;;5014032;28;20425;-71
2024/03/08 09:37:42;;;;;;;30.00;16.13;;;5.40;72.70;;;;;;5010180;28;20909;-72
2024/03/08 09:40:15;;;;;;;34.40;16.10;;;5.40;72.70;;;;;;5010054;28;20200;-72
2024/03/08 09:42:42;;;;;;;37.13;15.80;;;5.30;73.00;;;;;;5009731;28;20309;-70
2024/03/08 09:45:11;;;;;;;35.67;16.57;;;5.30;73.00;;;;;;5013546;28;20483;-70
2024/03/08 09:47:40;;;;;;;39.20;15.63;;;5.30;73.50;;;;;;5015503;28;20491;-72
2024/03/08 09:50:09;;;;;;;34.67;15.70;;;5.40;73.30;;;;;;5014988;28;20462;-71
2024/03/08 09:52:43;;;;;;;34.37;16.70;;;5.60;73.30;;;;;;5010777;28;20471;-73
2024/03/08 09:55:11;;;;;;;36.80;15.93;;;5.70;72.70;;;;;;5014369;28;20510;-72
2024/03/08 09:57:37;;;;;;;32.40;16.37;;;5.80;72.10;;;;;;5013466;28;20988;-72
2024/03/08 10:00:18;;;;;;;35.53;16.07;;;5.80;71.80;;;;;;5014377;28;20532;-71
2024/03/08 10:02:45;;;;;;;32.40;16.20;;;5.80;71.80;;;;;;5010998;28;20535;-71
2024/03/08 10:05:12;;;;;;;30.20;15.73;;;5.70;72.00;;;;;;5013792;28;20929;-71
2024/03/08 10:07:38;;;;;;;33.67;16.00;;;5.70;72.00;;;;;;5014284;28;20810;-72
2024/03/08 10:10:04;;;;;;;30.53;15.30;;;5.80;72.10;;;;;;5013978;28;20429;-70
2024/03/08 10:12:31;;;;;;;34.27;15.50;;;5.70;71.80;;;;;;5010818;28;20209;-72
2024/03/08 10:14:58;;;;;;;34.13;15.93;;;5.60;71.70;;;;;;5013828;28;20433;-71
2024/03/08 10:17:24;;;;;;;36.83;16.73;;;5.70;72.30;;;;;;5013186;28;20525;-72
2024/03/08 10:19:54;;;;;;;30.80;15.57;;;5.80;72.10;;;;;;5012994;28;20433;-72
2024/03/08 10:22:20;;;;;;;31.40;15.20;;;6.00;72.10;;;;;;5006975;28;20518;-70
2024/03/08 10:24:46;;;;;;;28.17;14.53;;;6.00;71.30;;;;;;5013744;28;20425;-73
2024/03/08 10:27:12;;;;;;;40.03;17.37;;;6.20;70.80;;;;;;5013070;28;20246;-70
2024/03/08 10:29:43;;;;;;;33.20;14.97;;;6.30;70.50;;;;;;5013115;28;20564;-70
2024/03/08 10:32:09;;;;;;;31.97;16.00;;;6.40;70.70;;;;;;5009932;28;20307;-72
2024/03/08 10:34:34;;;;;;;31.20;15.77;;;6.50;70.20;;;;;;5013555;28;20584;-71
2024/03/08 10:37:17;;;;;;;30.53;15.27;;;6.50;69.70;;;;;;5012758;28;20897;-77
2024/03/08 10:39:52;;;;;;;29.50;14.00;;;6.50;69.50;;;;;;5013056;28;20416;-72
2024/03/08 10:42:26;;;;;;;30.00;14.70;;;6.50;69.70;;;;;;5009129;28;20444;-72
2024/03/08 10:45:30;;;;;;;29.57;15.17;;;6.70;69.80;;;;;;5013345;28;20413;-72
2024/03/08 10:48:17;;;;;;;31.97;15.30;;;6.90;69.40;;;;;;4996865;28;20478;-71
2024/03/08 10:50:45;;;;;;;31.60;15.40;;;6.90;68.50;;;;;;5009351;28;22271;-71
2024/03/08 10:53:12;;;;;;;31.97;15.17;;;7.10;68.80;;;;;;5011608;28;20428;-72
2024/03/08 10:55:40;;;;;;;32.30;13.90;;;7.00;68.20;;;;;;5012586;28;20957;-71
2024/03/08 10:58:07;;;;;;;31.77;14.90;;;7.10;68.20;;;;;;5012801;28;20559;-71
2024/03/08 11:00:33;;;;;;;28.20;14.40;;;7.10;67.90;;;;;;5010603;28;20425;-73
2024/03/08 11:03:00;;;;;;;33.43;15.30;;;7.00;68.20;;;;;;5012111;28;20794;-73
2024/03/08 11:05:39;;;;;;;29.83;15.13;;;6.90;68.20;;;;;;5014042;28;20446;-73
2024/03/08 11:08:20;;;;;;;34.77;15.80;;;6.80;68.80;;;;;;5013483;28;20421;-73
2024/03/08 11:10:52;;;;;;;33.17;16.57;;;6.90;69.20;;;;;;5007070;28;20571;-71
2024/03/08 11:13:37;;;;;;;32.57;15.37;;;6.70;69.10;;;;;;5017840;28;20428;-73
2024/03/08 11:16:09;;;;;;;29.60;14.90;;;6.70;69.20;;;;;;5011699;28;20459;-72
2024/03/08 11:18:35;;;;;;;34.57;15.77;;;6.70;69.10;;;;;;5010031;28;20653;-71
2024/03/08 11:21:08;;;;;;;33.53;16.63;;;6.70;69.10;;;;;;5008849;28;20461;-71
2024/03/08 11:23:35;;;;;;;37.67;16.40;;;6.80;69.40;;;;;;5016752;28;20445;-72
2024/03/08 11:26:00;;;;;;;29.17;14.30;;;6.90;69.10;;;;;;5011941;28;20810;-72
2024/03/08 11:28:26;;;;;;;36.13;14.97;;;6.70;69.10;;;;;;5013582;28;20478;-70
2024/03/08 11:31:01;;;;;;;30.30;14.87;;;6.70;69.20;;;;;;5009784;28;20261;-70
2024/03/08 11:33:28;;;;;;;32.77;15.57;;;6.90;69.50;;;;;;5011575;28;20440;-71
2024/03/08 11:36:11;;;;;;;31.63;15.20;;;7.00;69.10;;;;;;5017350;28;21071;-69
2024/03/08 11:38:43;;;;;;;34.97;15.70;;;7.20;68.80;;;;;;4999258;28;20965;-69
2024/03/08 11:41:14;;;;;;;30.00;15.37;;;7.50;68.50;;;;;;5012327;28;20449;-70
2024/03/08 11:43:41;;;;;;;31.20;16.13;;;7.80;67.60;;;;;;5015277;28;20435;-71
2024/03/08 11:46:12;;;;;;;32.57;16.53;;;7.90;66.90;;;;;;5016759;28;20443;-71
2024/03/08 11:48:41;;;;;;;32.50;15.13;;;8.10;66.60;;;;;;5012835;28;20463;-72
2024/03/08 11:51:08;;;;;;;28.97;14.87;;;8.50;66.40;;;;;;5007748;28;20478;-72
2024/03/08 11:53:33;;;;;;;30.20;15.07;;;8.50;65.30;;;;;;5011427;28;20451;-72
2024/03/08 11:56:07;;;;;;;29.10;15.17;;;8.50;65.60;;;;;;5012483;28;20487;-73
2024/03/08 11:58:33;;;;;;;26.50;13.93;;;8.60;65.60;;;;;;5012306;28;20220;-70
2024/03/08 12:01:06;;;;;;;26.47;14.27;;;8.60;65.40;;;;;;5008513;28;20452;-70
2024/03/08 12:03:35;;;;;;;27.97;14.23;;;8.90;65.10;;;;;;5010982;28;20178;-73
2024/03/08 12:06:03;;;;;;;28.73;13.60;;;8.90;65.10;;;;;;5010893;28;20421;-71
2024/03/08 12:08:32;;;;;;;32.13;15.23;;;8.80;65.80;;;;;;5011564;28;20413;-72
2024/03/08 12:11:00;;;;;;;29.63;15.27;;;9.00;65.70;;;;;;5008783;28;20484;-71
2024/03/08 12:13:31;;;;;;;29.10;13.40;;;9.10;65.60;;;;;;5011215;28;20424;-74
2024/03/08 12:16:00;;;;;;;37.47;15.43;;;9.30;65.00;;;;;;5011617;28;20457;-70
2024/03/08 12:18:27;;;;;;;33.03;16.30;;;9.60;65.10;;;;;;5011561;28;20469;-72
2024/03/08 12:21:07;;;;;;;35.23;16.40;;;9.80;64.10;;;;;;5008771;28;20457;-71
2024/03/08 12:23:33;;;;;;;28.90;14.80;;;10.00;64.20;;;;;;5011834;28;20413;-71
2024/03/08 12:26:16;;;;;;;29.50;14.80;;;10.00;63.80;;;;;;5012588;28;20867;-71
2024/03/08 12:28:44;;;;;;;37.63;17.13;;;10.00;64.20;;;;;;5014683;28;20441;-73
2024/03/08 12:31:12;;;;;;;32.30;15.17;;;10.30;64.20;;;;;;5011656;28;20463;-70
2024/03/08 12:33:47;;;;;;;31.70;15.40;;;10.70;63.10;;;;;;5012446;28;20429;-72
2024/03/08 12:36:15;;;;;;;29.50;14.50;;;10.60;63.20;;;;;;5013005;28;20443;-69
2024/03/08 12:38:49;;;;;;;30.27;15.50;;;10.80;62.90;;;;;;5012321;28;20483;-70